sensor_id;sensor_type;location;lat;lon;timestamp;P1;durP1;ratioP1;P2;durP2;ratioP2
50231;SDS011;36118;56.468;84.952;2023-07-29T00:04:39;10.93;;;9.52;;
50231;SDS011;36118;56.468;84.952;2023-07-29T00:09:42;10.23;;;9.13;;
50231;SDS011;36118;56.468;84.952;2023-07-29T00:14:45;10.32;;;9.32;;
50231;SDS011;36118;56.468;84.952;2023-07-29T00:19:48;10.95;;;9.38;;
50231;SDS011;36118;56.468;84.952;2023-07-29T00:24:52;11.98;;;9.80;;
50231;SDS011;36118;56.468;84.952;2023-07-29T00:29:57;13.93;;;9.40;;
50231;SDS011;36118;56.468;84.952;2023-07-29T00:35:00;9.40;;;8.50;;
50231;SDS011;36118;56.468;84.952;2023-07-29T00:40:09;10.00;;;9.10;;
50231;SDS011;36118;56.468;84.952;2023-07-29T00:45:17;10.20;;;8.80;;
50231;SDS011;36118;56.468;84.952;2023-07-29T00:50:20;9.13;;;8.20;;
50231;SDS011;36118;56.468;84.952;2023-07-29T00:55:24;9.27;;;8.32;;
50231;SDS011;36118;56.468;84.952;2023-07-29T01:00:27;8.90;;;7.80;;
50231;SDS011;36118;56.468;84.952;2023-07-29T01:05:32;8.50;;;7.60;;
50231;SDS011;36118;56.468;84.952;2023-07-29T01:10:46;8.07;;;7.07;;
50231;SDS011;36118;56.468;84.952;2023-07-29T01:15:55;8.98;;;8.15;;
50231;SDS011;36118;56.468;84.952;2023-07-29T01:21:03;12.48;;;9.40;;
50231;SDS011;36118;56.468;84.952;2023-07-29T01:26:07;9.60;;;7.87;;
50231;SDS011;36118;56.468;84.952;2023-07-29T01:31:23;8.82;;;7.93;;
50231;SDS011;36118;56.468;84.952;2023-07-29T01:36:33;13.00;;;8.75;;
50231;SDS011;36118;56.468;84.952;2023-07-29T01:41:41;10.27;;;9.20;;
50231;SDS011;36118;56.468;84.952;2023-07-29T01:46:46;10.35;;;9.27;;
50231;SDS011;36118;56.468;84.952;2023-07-29T01:51:50;10.05;;;9.05;;
50231;SDS011;36118;56.468;84.952;2023-07-29T01:56:52;10.70;;;9.60;;
50231;SDS011;36118;56.468;84.952;2023-07-29T02:01:55;10.68;;;9.02;;
50231;SDS011;36118;56.468;84.952;2023-07-29T02:06:58;11.20;;;9.77;;
50231;SDS011;36118;56.468;84.952;2023-07-29T02:12:02;12.48;;;11.13;;
50231;SDS011;36118;56.468;84.952;2023-07-29T02:17:12;14.55;;;11.65;;
50231;SDS011;36118;56.468;84.952;2023-07-29T02:22:16;13.38;;;11.60;;
50231;SDS011;36118;56.468;84.952;2023-07-29T02:27:19;11.15;;;9.02;;
50231;SDS011;36118;56.468;84.952;2023-07-29T02:32:22;13.00;;;10.95;;
50231;SDS011;36118;56.468;84.952;2023-07-29T02:37:26;10.27;;;9.02;;
50231;SDS011;36118;56.468;84.952;2023-07-29T02:42:30;17.07;;;9.90;;
50231;SDS011;36118;56.468;84.952;2023-07-29T02:47:39;10.63;;;6.65;;
50231;SDS011;36118;56.468;84.952;2023-07-29T02:52:42;13.98;;;6.60;;
50231;SDS011;36118;56.468;84.952;2023-07-29T02:57:45;8.93;;;5.57;;
50231;SDS011;36118;56.468;84.952;2023-07-29T03:02:49;19.42;;;7.63;;
50231;SDS011;36118;56.468;84.952;2023-07-29T03:07:53;9.85;;;4.93;;
50231;SDS011;36118;56.468;84.952;2023-07-29T03:12:56;8.13;;;3.80;;
50231;SDS011;36118;56.468;84.952;2023-07-29T03:17:59;13.35;;;5.32;;
50231;SDS011;36118;56.468;84.952;2023-07-29T03:23:04;13.57;;;5.85;;
50231;SDS011;36118;56.468;84.952;2023-07-29T03:28:07;10.73;;;4.40;;
50231;SDS011;36118;56.468;84.952;2023-07-29T03:33:10;6.63;;;3.80;;
50231;SDS011;36118;56.468;84.952;2023-07-29T03:38:14;6.90;;;3.72;;
50231;SDS011;36118;56.468;84.952;2023-07-29T03:43:17;7.53;;;3.03;;
50231;SDS011;36118;56.468;84.952;2023-07-29T03:48:21;5.43;;;3.75;;
50231;SDS011;36118;56.468;84.952;2023-07-29T03:53:24;6.13;;;3.45;;
50231;SDS011;36118;56.468;84.952;2023-07-29T03:58:28;4.90;;;3.15;;
50231;SDS011;36118;56.468;84.952;2023-07-29T04:03:31;5.47;;;3.33;;
50231;SDS011;36118;56.468;84.952;2023-07-29T04:08:36;5.63;;;3.60;;
50231;SDS011;36118;56.468;84.952;2023-07-29T04:13:39;6.78;;;3.60;;
50231;SDS011;36118;56.468;84.952;2023-07-29T04:18:46;4.97;;;3.50;;
50231;SDS011;36118;56.468;84.952;2023-07-29T04:23:49;8.35;;;4.35;;
50231;SDS011;36118;56.468;84.952;2023-07-29T04:28:52;6.85;;;4.18;;
50231;SDS011;36118;56.468;84.952;2023-07-29T04:33:55;8.50;;;4.40;;
50231;SDS011;36118;56.468;84.952;2023-07-29T04:38:58;8.77;;;4.10;;
50231;SDS011;36118;56.468;84.952;2023-07-29T04:44:00;7.28;;;4.68;;
50231;SDS011;36118;56.468;84.952;2023-07-29T04:49:04;5.68;;;4.60;;
50231;SDS011;36118;56.468;84.952;2023-07-29T04:54:07;10.77;;;5.35;;
50231;SDS011;36118;56.468;84.952;2023-07-29T04:59:10;6.95;;;4.40;;
50231;SDS011;36118;56.468;84.952;2023-07-29T05:04:15;6.78;;;4.45;;
50231;SDS011;36118;56.468;84.952;2023-07-29T05:09:18;7.80;;;4.25;;
50231;SDS011;36118;56.468;84.952;2023-07-29T05:14:26;9.98;;;4.50;;
50231;SDS011;36118;56.468;84.952;2023-07-29T05:19:29;7.18;;;4.78;;
50231;SDS011;36118;56.468;84.952;2023-07-29T05:24:32;6.93;;;4.60;;
50231;SDS011;36118;56.468;84.952;2023-07-29T05:29:35;7.15;;;4.90;;
50231;SDS011;36118;56.468;84.952;2023-07-29T05:34:38;7.82;;;5.25;;
50231;SDS011;36118;56.468;84.952;2023-07-29T05:39:41;7.47;;;5.57;;
50231;SDS011;36118;56.468;84.952;2023-07-29T05:44:45;7.45;;;6.20;;
50231;SDS011;36118;56.468;84.952;2023-07-29T05:49:49;10.75;;;7.32;;
50231;SDS011;36118;56.468;84.952;2023-07-29T05:54:52;14.13;;;10.95;;
50231;SDS011;36118;56.468;84.952;2023-07-29T05:59:56;15.93;;;12.68;;
50231;SDS011;36118;56.468;84.952;2023-07-29T06:04:59;17.80;;;12.15;;
50231;SDS011;36118;56.468;84.952;2023-07-29T06:10:04;15.13;;;11.95;;
50231;SDS011;36118;56.468;84.952;2023-07-29T06:15:08;15.50;;;11.98;;
50231;SDS011;36118;56.468;84.952;2023-07-29T06:20:11;20.00;;;12.90;;
50231;SDS011;36118;56.468;84.952;2023-07-29T06:25:14;16.40;;;9.32;;
50231;SDS011;36118;56.468;84.952;2023-07-29T06:30:17;13.60;;;8.43;;
50231;SDS011;36118;56.468;84.952;2023-07-29T06:35:21;13.90;;;8.30;;
50231;SDS011;36118;56.468;84.952;2023-07-29T06:40:24;11.95;;;7.63;;
50231;SDS011;36118;56.468;84.952;2023-07-29T06:45:27;11.07;;;7.93;;
50231;SDS011;36118;56.468;84.952;2023-07-29T06:50:30;10.77;;;7.88;;
50231;SDS011;36118;56.468;84.952;2023-07-29T06:55:33;10.00;;;7.20;;
50231;SDS011;36118;56.468;84.952;2023-07-29T07:00:36;10.38;;;7.60;;
50231;SDS011;36118;56.468;84.952;2023-07-29T07:05:39;9.15;;;7.13;;
50231;SDS011;36118;56.468;84.952;2023-07-29T07:10:42;9.68;;;6.47;;
50231;SDS011;36118;56.468;84.952;2023-07-29T07:15:47;8.73;;;6.07;;
50231;SDS011;36118;56.468;84.952;2023-07-29T07:20:50;8.80;;;5.70;;
50231;SDS011;36118;56.468;84.952;2023-07-29T07:25:53;6.43;;;4.20;;
50231;SDS011;36118;56.468;84.952;2023-07-29T07:30:56;5.72;;;4.13;;
50231;SDS011;36118;56.468;84.952;2023-07-29T07:35:59;5.65;;;4.18;;
50231;SDS011;36118;56.468;84.952;2023-07-29T07:41:03;6.70;;;3.50;;
50231;SDS011;36118;56.468;84.952;2023-07-29T07:46:05;4.82;;;3.88;;
50231;SDS011;36118;56.468;84.952;2023-07-29T07:51:12;6.95;;;3.20;;
50231;SDS011;36118;56.468;84.952;2023-07-29T07:56:15;5.35;;;2.97;;
50231;SDS011;36118;56.468;84.952;2023-07-29T08:01:18;14.43;;;4.40;;
50231;SDS011;36118;56.468;84.952;2023-07-29T08:06:22;7.75;;;3.05;;
50231;SDS011;36118;56.468;84.952;2023-07-29T08:11:25;7.10;;;3.05;;
50231;SDS011;36118;56.468;84.952;2023-07-29T08:16:28;6.00;;;3.20;;
50231;SDS011;36118;56.468;84.952;2023-07-29T08:21:31;3.65;;;2.60;;
50231;SDS011;36118;56.468;84.952;2023-07-29T08:26:35;7.07;;;3.40;;
50231;SDS011;36118;56.468;84.952;2023-07-29T08:31:38;6.43;;;3.15;;
50231;SDS011;36118;56.468;84.952;2023-07-29T08:36:41;4.57;;;2.47;;
50231;SDS011;36118;56.468;84.952;2023-07-29T08:41:51;4.22;;;2.35;;
50231;SDS011;36118;56.468;84.952;2023-07-29T08:46:58;5.35;;;2.20;;
50231;SDS011;36118;56.468;84.952;2023-07-29T08:52:02;5.45;;;2.50;;
50231;SDS011;36118;56.468;84.952;2023-07-29T08:57:06;5.82;;;2.92;;
50231;SDS011;36118;56.468;84.952;2023-07-29T09:02:09;6.45;;;3.40;;
50231;SDS011;36118;56.468;84.952;2023-07-29T09:07:12;8.07;;;4.90;;
50231;SDS011;36118;56.468;84.952;2023-07-29T09:12:15;4.47;;;3.00;;
50231;SDS011;36118;56.468;84.952;2023-07-29T09:17:18;5.88;;;3.17;;
50231;SDS011;36118;56.468;84.952;2023-07-29T09:22:24;4.65;;;3.20;;
50231;SDS011;36118;56.468;84.952;2023-07-29T09:27:30;7.93;;;5.20;;
50231;SDS011;36118;56.468;84.952;2023-07-29T09:32:35;6.40;;;5.22;;
50231;SDS011;36118;56.468;84.952;2023-07-29T09:37:43;7.55;;;5.75;;
50231;SDS011;36118;56.468;84.952;2023-07-29T09:42:47;7.65;;;4.60;;
50231;SDS011;36118;56.468;84.952;2023-07-29T09:47:52;5.45;;;4.45;;
50231;SDS011;36118;56.468;84.952;2023-07-29T09:52:56;4.50;;;3.97;;
50231;SDS011;36118;56.468;84.952;2023-07-29T09:58:06;4.57;;;3.90;;
50231;SDS011;36118;56.468;84.952;2023-07-29T10:03:11;6.22;;;4.32;;
50231;SDS011;36118;56.468;84.952;2023-07-29T10:08:15;6.83;;;4.70;;
50231;SDS011;36118;56.468;84.952;2023-07-29T10:13:18;6.97;;;5.90;;
50231;SDS011;36118;56.468;84.952;2023-07-29T10:18:27;7.82;;;6.00;;
50231;SDS011;36118;56.468;84.952;2023-07-29T10:23:34;9.07;;;5.40;;
50231;SDS011;36118;56.468;84.952;2023-07-29T10:28:41;6.45;;;4.55;;
50231;SDS011;36118;56.468;84.952;2023-07-29T10:33:50;5.28;;;4.60;;
50231;SDS011;36118;56.468;84.952;2023-07-29T10:38:54;8.03;;;5.00;;
50231;SDS011;36118;56.468;84.952;2023-07-29T10:43:57;4.93;;;3.95;;
50231;SDS011;36118;56.468;84.952;2023-07-29T10:49:01;6.03;;;4.10;;
50231;SDS011;36118;56.468;84.952;2023-07-29T10:54:11;5.40;;;4.10;;
50231;SDS011;36118;56.468;84.952;2023-07-29T11:14:44;9.25;;;5.00;;
50231;SDS011;36118;56.468;84.952;2023-07-29T11:19:48;8.18;;;4.28;;
50231;SDS011;36118;56.468;84.952;2023-07-29T11:24:55;15.40;;;12.70;;
50231;SDS011;36118;56.468;84.952;2023-07-29T11:30:01;7.05;;;3.85;;
50231;SDS011;36118;56.468;84.952;2023-07-29T11:35:08;6.75;;;3.47;;
50231;SDS011;36118;56.468;84.952;2023-07-29T11:40:14;5.78;;;3.70;;
50231;SDS011;36118;56.468;84.952;2023-07-29T11:45:18;11.57;;;6.43;;
50231;SDS011;36118;56.468;84.952;2023-07-29T11:50:22;12.07;;;7.10;;
50231;SDS011;36118;56.468;84.952;2023-07-29T11:55:25;10.23;;;7.43;;
50231;SDS011;36118;56.468;84.952;2023-07-29T12:00:28;12.45;;;7.25;;
50231;SDS011;36118;56.468;84.952;2023-07-29T12:05:31;11.95;;;5.72;;
50231;SDS011;36118;56.468;84.952;2023-07-29T12:10:36;13.75;;;5.53;;
50231;SDS011;36118;56.468;84.952;2023-07-29T12:15:39;14.10;;;6.55;;
50231;SDS011;36118;56.468;84.952;2023-07-29T12:20:43;12.23;;;6.53;;
50231;SDS011;36118;56.468;84.952;2023-07-29T12:25:46;12.40;;;7.47;;
50231;SDS011;36118;56.468;84.952;2023-07-29T12:30:53;17.25;;;9.02;;
50231;SDS011;36118;56.468;84.952;2023-07-29T12:36:00;17.98;;;11.25;;
50231;SDS011;36118;56.468;84.952;2023-07-29T12:41:03;17.58;;;11.60;;
50231;SDS011;36118;56.468;84.952;2023-07-29T12:46:06;15.93;;;11.30;;
50231;SDS011;36118;56.468;84.952;2023-07-29T12:51:09;12.43;;;11.07;;
50231;SDS011;36118;56.468;84.952;2023-07-29T12:56:12;16.38;;;11.57;;
50231;SDS011;36118;56.468;84.952;2023-07-29T13:01:15;15.68;;;11.13;;
50231;SDS011;36118;56.468;84.952;2023-07-29T13:06:20;13.10;;;10.35;;
50231;SDS011;36118;56.468;84.952;2023-07-29T13:11:23;14.52;;;10.25;;
50231;SDS011;36118;56.468;84.952;2023-07-29T13:16:27;17.67;;;11.95;;
50231;SDS011;36118;56.468;84.952;2023-07-29T13:21:31;15.98;;;13.57;;
50231;SDS011;36118;56.468;84.952;2023-07-29T13:26:34;15.65;;;12.68;;
50231;SDS011;36118;56.468;84.952;2023-07-29T13:31:39;19.55;;;13.60;;
50231;SDS011;36118;56.468;84.952;2023-07-29T13:36:42;22.83;;;16.15;;
50231;SDS011;36118;56.468;84.952;2023-07-29T13:41:45;26.83;;;20.10;;
50231;SDS011;36118;56.468;84.952;2023-07-29T13:46:48;28.75;;;19.52;;
50231;SDS011;36118;56.468;84.952;2023-07-29T13:51:51;26.67;;;15.70;;
50231;SDS011;36118;56.468;84.952;2023-07-29T13:56:54;21.77;;;15.32;;
50231;SDS011;36118;56.468;84.952;2023-07-29T14:01:58;15.80;;;12.55;;
50231;SDS011;36118;56.468;84.952;2023-07-29T14:07:02;17.20;;;14.10;;
50231;SDS011;36118;56.468;84.952;2023-07-29T14:12:08;20.80;;;15.02;;
50231;SDS011;36118;56.468;84.952;2023-07-29T14:17:14;21.15;;;17.27;;
50231;SDS011;36118;56.468;84.952;2023-07-29T14:22:17;22.98;;;19.85;;
50231;SDS011;36118;56.468;84.952;2023-07-29T14:27:20;18.95;;;16.85;;
50231;SDS011;36118;56.468;84.952;2023-07-29T14:32:23;19.25;;;16.60;;
50231;SDS011;36118;56.468;84.952;2023-07-29T14:37:27;19.98;;;15.50;;
50231;SDS011;36118;56.468;84.952;2023-07-29T14:42:30;21.00;;;15.38;;
50231;SDS011;36118;56.468;84.952;2023-07-29T14:47:36;20.15;;;14.48;;
50231;SDS011;36118;56.468;84.952;2023-07-29T14:52:39;21.95;;;14.25;;
50231;SDS011;36118;56.468;84.952;2023-07-29T14:57:42;21.75;;;14.25;;
50231;SDS011;36118;56.468;84.952;2023-07-29T15:02:45;20.20;;;13.93;;
50231;SDS011;36118;56.468;84.952;2023-07-29T15:07:48;21.60;;;14.35;;
50231;SDS011;36118;56.468;84.952;2023-07-29T15:12:51;16.60;;;13.13;;
50231;SDS011;36118;56.468;84.952;2023-07-29T15:17:54;17.17;;;12.38;;
50231;SDS011;36118;56.468;84.952;2023-07-29T15:22:59;16.92;;;12.15;;
50231;SDS011;36118;56.468;84.952;2023-07-29T15:28:02;12.30;;;11.10;;
50231;SDS011;36118;56.468;84.952;2023-07-29T15:33:06;12.98;;;11.20;;
50231;SDS011;36118;56.468;84.952;2023-07-29T15:38:09;19.30;;;14.20;;
50231;SDS011;36118;56.468;84.952;2023-07-29T15:43:12;15.00;;;12.30;;
50231;SDS011;36118;56.468;84.952;2023-07-29T15:48:15;14.63;;;12.35;;
50231;SDS011;36118;56.468;84.952;2023-07-29T15:53:18;16.85;;;12.63;;
50231;SDS011;36118;56.468;84.952;2023-07-29T15:58:21;15.80;;;13.93;;
50231;SDS011;36118;56.468;84.952;2023-07-29T16:03:25;19.55;;;15.20;;
50231;SDS011;36118;56.468;84.952;2023-07-29T16:08:28;17.73;;;15.90;;
50231;SDS011;36118;56.468;84.952;2023-07-29T16:13:31;19.50;;;16.73;;
50231;SDS011;36118;56.468;84.952;2023-07-29T16:18:34;18.77;;;16.77;;
50231;SDS011;36118;56.468;84.952;2023-07-29T16:23:37;18.65;;;16.70;;
50231;SDS011;36118;56.468;84.952;2023-07-29T16:28:40;24.95;;;18.15;;
50231;SDS011;36118;56.468;84.952;2023-07-29T16:33:45;21.40;;;17.90;;
50231;SDS011;36118;56.468;84.952;2023-07-29T16:38:48;18.60;;;16.60;;
50231;SDS011;36118;56.468;84.952;2023-07-29T16:43:51;21.05;;;16.85;;
50231;SDS011;36118;56.468;84.952;2023-07-29T16:48:54;18.38;;;16.38;;
50231;SDS011;36118;56.468;84.952;2023-07-29T16:53:57;18.80;;;16.83;;
50231;SDS011;36118;56.468;84.952;2023-07-29T16:59:00;20.15;;;18.13;;
50231;SDS011;36118;56.468;84.952;2023-07-29T17:04:03;20.10;;;17.95;;
50231;SDS011;36118;56.468;84.952;2023-07-29T17:09:07;19.98;;;17.85;;
50231;SDS011;36118;56.468;84.952;2023-07-29T17:14:09;20.48;;;17.92;;
50231;SDS011;36118;56.468;84.952;2023-07-29T17:19:33;18.90;;;16.90;;
50231;SDS011;36118;56.468;84.952;2023-07-29T17:24:43;18.85;;;15.32;;
50231;SDS011;36118;56.468;84.952;2023-07-29T17:29:46;16.58;;;13.32;;
50231;SDS011;36118;56.468;84.952;2023-07-29T17:34:49;14.32;;;11.30;;
50231;SDS011;36118;56.468;84.952;2023-07-29T17:40:12;11.55;;;10.35;;
50231;SDS011;36118;56.468;84.952;2023-07-29T17:45:16;12.40;;;10.10;;
50231;SDS011;36118;56.468;84.952;2023-07-29T17:50:26;9.18;;;7.95;;
50231;SDS011;36118;56.468;84.952;2023-07-29T17:55:50;9.43;;;7.85;;
50231;SDS011;36118;56.468;84.952;2023-07-29T18:00:53;9.52;;;7.47;;
50231;SDS011;36118;56.468;84.952;2023-07-29T18:06:01;8.27;;;7.20;;
50231;SDS011;36118;56.468;84.952;2023-07-29T18:11:04;9.27;;;7.65;;
50231;SDS011;36118;56.468;84.952;2023-07-29T18:16:07;10.27;;;7.70;;
50231;SDS011;36118;56.468;84.952;2023-07-29T18:26:34;11.98;;;8.00;;
50231;SDS011;36118;56.468;84.952;2023-07-29T18:31:42;11.60;;;8.30;;
50231;SDS011;36118;56.468;84.952;2023-07-29T18:36:49;11.45;;;9.18;;
50231;SDS011;36118;56.468;84.952;2023-07-29T18:41:52;12.30;;;9.07;;
50231;SDS011;36118;56.468;84.952;2023-07-29T18:47:15;11.32;;;9.05;;
50231;SDS011;36118;56.468;84.952;2023-07-29T18:52:18;10.73;;;8.50;;
50231;SDS011;36118;56.468;84.952;2023-07-29T18:57:21;9.85;;;8.50;;
50231;SDS011;36118;56.468;84.952;2023-07-29T19:02:28;11.10;;;9.30;;
50231;SDS011;36118;56.468;84.952;2023-07-29T19:07:35;13.80;;;9.68;;
50231;SDS011;36118;56.468;84.952;2023-07-29T19:12:38;13.50;;;10.40;;
50231;SDS011;36118;56.468;84.952;2023-07-29T19:17:41;11.48;;;10.30;;
50231;SDS011;36118;56.468;84.952;2023-07-29T19:22:55;16.40;;;12.57;;
50231;SDS011;36118;56.468;84.952;2023-07-29T19:33:21;13.95;;;12.48;;
50231;SDS011;36118;56.468;84.952;2023-07-29T19:38:27;15.75;;;12.48;;
50231;SDS011;36118;56.468;84.952;2023-07-29T19:43:31;16.05;;;12.73;;
50231;SDS011;36118;56.468;84.952;2023-07-29T19:48:35;13.35;;;11.60;;
50231;SDS011;36118;56.468;84.952;2023-07-29T19:53:38;13.75;;;12.15;;
50231;SDS011;36118;56.468;84.952;2023-07-29T19:58:42;12.93;;;11.55;;
50231;SDS011;36118;56.468;84.952;2023-07-29T20:03:48;14.07;;;11.75;;
50231;SDS011;36118;56.468;84.952;2023-07-29T20:08:51;12.52;;;11.18;;
50231;SDS011;36118;56.468;84.952;2023-07-29T20:13:56;14.63;;;11.27;;
50231;SDS011;36118;56.468;84.952;2023-07-29T20:18:59;14.23;;;11.30;;
50231;SDS011;36118;56.468;84.952;2023-07-29T20:24:02;11.95;;;10.23;;
50231;SDS011;36118;56.468;84.952;2023-07-29T20:29:07;12.57;;;10.13;;
50231;SDS011;36118;56.468;84.952;2023-07-29T20:34:10;11.80;;;10.30;;
50231;SDS011;36118;56.468;84.952;2023-07-29T20:39:13;11.45;;;10.25;;
50231;SDS011;36118;56.468;84.952;2023-07-29T20:44:17;11.60;;;9.85;;
50231;SDS011;36118;56.468;84.952;2023-07-29T20:49:20;11.65;;;10.23;;
50231;SDS011;36118;56.468;84.952;2023-07-29T20:54:23;12.25;;;10.85;;
50231;SDS011;36118;56.468;84.952;2023-07-29T20:59:26;12.48;;;10.85;;
50231;SDS011;36118;56.468;84.952;2023-07-29T21:04:29;12.10;;;10.40;;
50231;SDS011;36118;56.468;84.952;2023-07-29T21:09:33;13.23;;;10.53;;
50231;SDS011;36118;56.468;84.952;2023-07-29T21:14:38;14.13;;;10.93;;
50231;SDS011;36118;56.468;84.952;2023-07-29T21:19:41;13.27;;;11.02;;
50231;SDS011;36118;56.468;84.952;2023-07-29T21:24:44;11.68;;;10.30;;
50231;SDS011;36118;56.468;84.952;2023-07-29T21:29:47;11.93;;;10.60;;
50231;SDS011;36118;56.468;84.952;2023-07-29T21:34:50;11.70;;;10.50;;
50231;SDS011;36118;56.468;84.952;2023-07-29T21:39:54;11.98;;;10.77;;
50231;SDS011;36118;56.468;84.952;2023-07-29T21:44:58;15.15;;;10.35;;
50231;SDS011;36118;56.468;84.952;2023-07-29T21:50:01;13.02;;;11.23;;
50231;SDS011;36118;56.468;84.952;2023-07-29T21:55:06;13.70;;;12.30;;
50231;SDS011;36118;56.468;84.952;2023-07-29T22:00:09;15.55;;;13.77;;
50231;SDS011;36118;56.468;84.952;2023-07-29T22:05:12;16.27;;;13.73;;
50231;SDS011;36118;56.468;84.952;2023-07-29T22:10:16;17.10;;;14.70;;
50231;SDS011;36118;56.468;84.952;2023-07-29T22:15:20;17.48;;;15.77;;
50231;SDS011;36118;56.468;84.952;2023-07-29T22:20:23;18.38;;;15.05;;
50231;SDS011;36118;56.468;84.952;2023-07-29T22:25:27;19.40;;;15.73;;
50231;SDS011;36118;56.468;84.952;2023-07-29T22:30:30;17.65;;;15.73;;
50231;SDS011;36118;56.468;84.952;2023-07-29T22:35:39;18.15;;;15.30;;
50231;SDS011;36118;56.468;84.952;2023-07-29T22:40:49;17.63;;;15.82;;
50231;SDS011;36118;56.468;84.952;2023-07-29T22:45:54;17.55;;;15.38;;
50231;SDS011;36118;56.468;84.952;2023-07-29T22:50:58;17.93;;;15.53;;
50231;SDS011;36118;56.468;84.952;2023-07-29T22:56:02;18.80;;;15.00;;
50231;SDS011;36118;56.468;84.952;2023-07-29T23:01:04;16.23;;;14.43;;
50231;SDS011;36118;56.468;84.952;2023-07-29T23:06:08;17.13;;;14.27;;
50231;SDS011;36118;56.468;84.952;2023-07-29T23:11:11;16.90;;;13.10;;
50231;SDS011;36118;56.468;84.952;2023-07-29T23:16:14;14.05;;;12.50;;
50231;SDS011;36118;56.468;84.952;2023-07-29T23:21:18;14.35;;;11.88;;
50231;SDS011;36118;56.468;84.952;2023-07-29T23:26:21;14.48;;;12.07;;
50231;SDS011;36118;56.468;84.952;2023-07-29T23:31:23;14.00;;;12.60;;
50231;SDS011;36118;56.468;84.952;2023-07-29T23:36:26;12.98;;;11.68;;
50231;SDS011;36118;56.468;84.952;2023-07-29T23:41:30;14.80;;;11.43;;
50231;SDS011;36118;56.468;84.952;2023-07-29T23:46:32;12.77;;;11.20;;
50231;SDS011;36118;56.468;84.952;2023-07-29T23:51:35;13.23;;;10.43;;
50231;SDS011;36118;56.468;84.952;2023-07-29T23:56:39;11.02;;;9.82;;
